Time;durP1;ratioP1;P1;durP2;ratioP2;P2;SDS_P1;SDS_P2;PMS_P1;PMS_P2;Temp;Humidity;BMP_temperature;BMP_pressure;BME280_temperature;BME280_humidity;BME280_pressure;Samples;Min_cycle;Max_cycle;Signal;HPM_P1;HPM_P2
2022/07/02 00:01:18;;;;;;;1.53;1.10;;;19.50;99.90;;;;;;5022689;28;21095;-82
2022/07/02 00:03:51;;;;;;;1.07;1.00;;;19.50;99.90;;;;;;5026316;28;20464;-79
2022/07/02 00:06:21;;;;;;;1.10;1.10;;;19.50;99.90;;;;;;5022278;28;20960;-78
2022/07/02 00:08:50;;;;;;;1.10;0.90;;;19.40;99.90;;;;;;5022463;28;20468;-78
2022/07/02 00:11:20;;;;;;;1.10;0.90;;;19.40;99.90;;;;;;5020947;28;20488;-79
2022/07/02 00:13:50;;;;;;;1.00;0.90;;;19.40;99.90;;;;;;5026521;28;20460;-80
2022/07/02 00:16:20;;;;;;;1.33;1.23;;;19.30;99.90;;;;;;5023243;28;20445;-78
2022/07/02 00:18:48;;;;;;;1.10;1.00;;;19.30;99.90;;;;;;5024638;28;20464;-79
2022/07/02 00:21:17;;;;;;;1.33;1.23;;;19.30;99.90;;;;;;5022887;28;20472;-79
2022/07/02 00:23:45;;;;;;;2.00;1.10;;;19.30;99.90;;;;;;5022697;28;20460;-78
2022/07/02 00:26:17;;;;;;;4.90;1.10;;;19.30;99.90;;;;;;5023379;28;20461;-79
2022/07/02 00:28:54;;;;;;;1.30;1.20;;;19.30;99.90;;;;;;5018338;28;20984;-79
2022/07/02 00:31:24;;;;;;;1.13;1.03;;;19.30;99.90;;;;;;5022230;28;20488;-80
2022/07/02 00:33:59;;;;;;;1.30;1.10;;;19.20;99.90;;;;;;5025543;28;20766;-79
2022/07/02 00:36:28;;;;;;;2.67;1.10;;;19.20;99.90;;;;;;5022505;28;20482;-81
2022/07/02 00:38:57;;;;;;;1.63;1.10;;;19.20;99.90;;;;;;5022666;28;20448;-79
2022/07/02 00:41:27;;;;;;;1.07;1.00;;;19.20;99.90;;;;;;5019976;28;20472;-80
2022/07/02 00:43:56;;;;;;;2.47;1.00;;;19.20;99.90;;;;;;5022200;28;20541;-79
2022/07/02 00:46:28;;;;;;;1.20;1.10;;;19.20;99.90;;;;;;5019644;28;20904;-80
2022/07/02 00:48:56;;;;;;;1.00;0.90;;;19.10;99.90;;;;;;5022870;28;20588;-80
2022/07/02 00:51:25;;;;;;;1.43;1.33;;;19.10;99.90;;;;;;5021588;28;20484;-80
2022/07/02 00:53:53;;;;;;;3.13;1.07;;;19.10;99.90;;;;;;5022027;28;20468;-80
2022/07/02 00:56:22;;;;;;;2.83;1.10;;;19.10;99.90;;;;;;5020789;28;20469;-78
2022/07/02 00:58:50;;;;;;;1.30;1.20;;;19.00;99.90;;;;;;5024367;28;20467;-79
2022/07/02 01:01:18;;;;;;;2.10;1.10;;;19.00;99.90;;;;;;5021236;28;20494;-80
2022/07/02 01:03:50;;;;;;;2.30;2.10;;;19.00;99.90;;;;;;5024467;28;20494;-78
2022/07/02 01:06:18;;;;;;;2.50;1.20;;;18.90;99.90;;;;;;5020687;28;20499;-78
2022/07/02 01:11:34;;;;;;;1.40;1.30;;;19.00;99.90;;;;;;5021565;28;20491;-79
2022/07/02 01:14:04;;;;;;;1.07;1.07;;;19.10;99.90;;;;;;5039060;28;20518;-79
2022/07/02 01:16:32;;;;;;;1.30;1.20;;;19.00;99.90;;;;;;5017958;28;20475;-78
2022/07/02 01:19:02;;;;;;;2.07;1.10;;;19.00;99.90;;;;;;5021795;28;20463;-80
2022/07/02 01:21:30;;;;;;;1.53;1.43;;;19.00;99.90;;;;;;5019474;28;20480;-79
2022/07/02 01:24:00;;;;;;;1.47;1.20;;;19.00;99.90;;;;;;5025749;28;20578;-79
2022/07/02 01:26:28;;;;;;;1.60;1.20;;;18.90;99.90;;;;;;5023550;28;20448;-79
2022/07/02 01:28:56;;;;;;;1.30;1.20;;;18.80;99.90;;;;;;5019780;28;20471;-79
2022/07/02 01:31:25;;;;;;;2.50;1.20;;;18.90;99.90;;;;;;5019243;28;20476;-79
2022/07/02 01:33:53;;;;;;;1.10;1.00;;;19.00;99.90;;;;;;5023771;28;20466;-79
2022/07/02 01:36:21;;;;;;;1.20;1.10;;;19.00;99.90;;;;;;5021881;28;20460;-79
2022/07/02 01:38:49;;;;;;;3.73;1.27;;;19.00;99.90;;;;;;5022662;28;20496;-79
2022/07/02 01:44:05;;;;;;;1.27;1.17;;;18.90;99.90;;;;;;5020452;28;20520;-78
2022/07/02 01:46:34;;;;;;;0.80;0.80;;;19.00;99.90;;;;;;5020743;28;20487;-79
2022/07/02 01:49:03;;;;;;;3.10;1.13;;;19.00;99.90;;;;;;5019595;28;20502;-80
2022/07/02 01:51:31;;;;;;;2.63;1.10;;;18.90;99.90;;;;;;5021700;28;20476;-79
2022/07/02 01:53:59;;;;;;;1.33;1.23;;;18.90;99.90;;;;;;5021472;28;20456;-79
2022/07/02 01:56:31;;;;;;;0.90;0.90;;;18.80;99.90;;;;;;5023269;28;20959;-79
2022/07/02 01:59:00;;;;;;;1.00;0.90;;;18.70;99.90;;;;;;5018828;28;20457;-79
2022/07/02 02:01:28;;;;;;;1.40;1.30;;;18.70;99.90;;;;;;5019891;28;21191;-79
2022/07/02 02:03:57;;;;;;;1.13;0.80;;;18.80;99.90;;;;;;5023861;28;20461;-78
2022/07/02 02:06:25;;;;;;;1.00;0.93;;;18.80;99.90;;;;;;5016662;28;20456;-79
2022/07/02 02:08:53;;;;;;;1.10;1.00;;;18.80;99.90;;;;;;5019790;28;20455;-79
2022/07/02 02:11:22;;;;;;;1.67;1.00;;;18.70;99.90;;;;;;5022308;28;20499;-79
2022/07/02 02:13:52;;;;;;;1.10;1.00;;;18.60;99.90;;;;;;5021034;28;20456;-79
2022/07/02 02:16:20;;;;;;;2.27;1.03;;;18.70;99.90;;;;;;5021901;28;20467;-82
2022/07/02 02:18:48;;;;;;;1.23;1.13;;;18.60;99.90;;;;;;5027173;28;20455;-81
2022/07/02 02:21:17;;;;;;;2.10;1.00;;;18.50;99.90;;;;;;5028255;28;20479;-82
2022/07/02 02:23:45;;;;;;;1.20;1.10;;;18.50;99.90;;;;;;5022489;28;20455;-83
2022/07/02 02:26:13;;;;;;;1.00;0.90;;;18.60;99.90;;;;;;5021523;28;20476;-83
2022/07/02 02:28:42;;;;;;;1.27;1.17;;;18.60;99.90;;;;;;5026640;28;20454;-82
2022/07/02 02:31:11;;;;;;;1.10;1.00;;;18.60;99.90;;;;;;5021850;28;20519;-81
2022/07/02 02:33:40;;;;;;;2.23;1.20;;;18.60;99.90;;;;;;5023819;28;21034;-82
2022/07/02 02:36:09;;;;;;;1.33;1.10;;;18.60;99.90;;;;;;5026839;28;20459;-82
2022/07/02 02:38:37;;;;;;;1.10;1.00;;;18.70;99.90;;;;;;5025387;28;20475;-82
2022/07/02 02:41:07;;;;;;;3.07;1.13;;;18.60;99.90;;;;;;5029170;28;20490;-81
2022/07/02 02:43:36;;;;;;;1.13;1.03;;;18.60;99.90;;;;;;5025413;28;20470;-83
2022/07/02 02:46:05;;;;;;;1.20;1.10;;;18.60;99.90;;;;;;5019787;28;20456;-81
2022/07/02 02:48:36;;;;;;;1.10;0.90;;;18.60;99.90;;;;;;5024264;28;20994;-82
2022/07/02 02:51:05;;;;;;;1.30;1.17;;;18.60;99.90;;;;;;5029185;28;20483;-81
2022/07/02 02:53:34;;;;;;;3.07;1.63;;;18.50;99.90;;;;;;5023617;28;20493;-82
2022/07/02 02:56:03;;;;;;;1.10;1.10;;;18.50;99.90;;;;;;5027192;28;21071;-81
2022/07/02 02:58:31;;;;;;;1.00;0.90;;;18.50;99.90;;;;;;5023528;28;20463;-81
2022/07/02 03:01:00;;;;;;;2.97;1.07;;;18.50;99.90;;;;;;5028488;28;20495;-82
2022/07/02 03:03:28;;;;;;;1.17;1.00;;;18.40;99.90;;;;;;5023256;28;20490;-83
2022/07/02 03:05:58;;;;;;;1.03;0.80;;;18.40;99.90;;;;;;5019040;28;20455;-82
2022/07/02 03:08:26;;;;;;;1.13;0.80;;;18.40;99.90;;;;;;5024720;28;20461;-82
2022/07/02 03:10:55;;;;;;;1.17;1.07;;;18.40;99.90;;;;;;5024132;28;21081;-80
2022/07/02 03:13:23;;;;;;;1.63;1.07;;;18.40;99.90;;;;;;5026875;28;20488;-83
2022/07/02 03:15:52;;;;;;;1.80;1.30;;;18.40;99.90;;;;;;5027060;28;20487;-80
2022/07/02 03:18:20;;;;;;;1.30;1.20;;;18.30;99.90;;;;;;5027734;28;20506;-81
2022/07/02 03:20:54;;;;;;;1.50;1.30;;;18.30;99.90;;;;;;5028905;28;20493;-82
2022/07/02 03:23:24;;;;;;;2.80;0.90;;;18.30;99.90;;;;;;5030864;28;20461;-84
2022/07/02 03:25:52;;;;;;;1.20;1.10;;;18.30;99.90;;;;;;5056876;28;20455;-81
2022/07/02 03:28:21;;;;;;;1.83;1.00;;;18.40;99.90;;;;;;5021820;28;20450;-81
2022/07/02 03:30:49;;;;;;;1.57;1.00;;;18.30;99.90;;;;;;5042544;28;20536;-83
2022/07/02 03:33:17;;;;;;;1.37;0.90;;;18.30;99.90;;;;;;5023614;28;20483;-81
2022/07/02 03:35:46;;;;;;;0.90;0.90;;;18.30;99.90;;;;;;5030253;28;20460;-84
2022/07/02 03:38:14;;;;;;;1.00;0.90;;;18.30;99.90;;;;;;5024121;28;20483;-82
2022/07/02 03:40:44;;;;;;;0.90;0.90;;;18.30;99.90;;;;;;5032352;28;20483;-81
2022/07/02 03:43:12;;;;;;;1.00;1.00;;;18.20;99.90;;;;;;5026503;28;20462;-82
2022/07/02 03:45:40;;;;;;;2.33;1.10;;;18.30;99.90;;;;;;5029146;28;20470;-83
2022/07/02 03:48:09;;;;;;;2.33;1.00;;;18.30;99.90;;;;;;5026590;28;20893;-82
2022/07/02 03:50:40;;;;;;;0.90;0.90;;;18.30;99.90;;;;;;5058305;28;20489;-82
2022/07/02 03:53:08;;;;;;;1.10;1.00;;;18.30;99.90;;;;;;5021723;28;20487;-80
2022/07/02 03:55:37;;;;;;;1.07;1.03;;;18.30;99.90;;;;;;5027848;28;21040;-81
2022/07/02 03:58:06;;;;;;;1.63;1.10;;;18.30;99.90;;;;;;5022130;28;20454;-81
2022/07/02 04:00:35;;;;;;;1.00;0.90;;;18.30;99.90;;;;;;5022112;28;20510;-80
2022/07/02 04:03:03;;;;;;;1.17;1.00;;;18.30;99.90;;;;;;5025665;28;20483;-80
2022/07/02 04:05:31;;;;;;;1.20;1.10;;;18.20;99.90;;;;;;5024129;28;20458;-80
2022/07/02 04:07:59;;;;;;;1.47;0.93;;;18.30;99.90;;;;;;5025074;28;20860;-80
2022/07/02 04:10:28;;;;;;;1.67;1.20;;;18.30;99.90;;;;;;5018874;28;20484;-80
2022/07/02 04:12:56;;;;;;;1.20;1.10;;;18.20;99.90;;;;;;5026323;28;20494;-81
2022/07/02 04:15:26;;;;;;;1.00;1.00;;;18.30;99.90;;;;;;5024836;28;20480;-81
2022/07/02 04:17:54;;;;;;;1.00;1.00;;;18.20;99.90;;;;;;5029067;28;20452;-81
2022/07/02 04:20:22;;;;;;;0.90;0.90;;;18.20;99.90;;;;;;5029254;28;21002;-81
2022/07/02 04:22:50;;;;;;;1.63;1.10;;;18.20;99.90;;;;;;5023266;28;20536;-81
2022/07/02 04:25:19;;;;;;;1.40;1.30;;;18.20;99.90;;;;;;5026158;28;20803;-81
2022/07/02 04:27:47;;;;;;;3.30;1.00;;;18.20;99.90;;;;;;5020933;28;20876;-79
2022/07/02 04:30:15;;;;;;;1.17;1.07;;;18.20;99.90;;;;;;5025368;28;20482;-80
2022/07/02 04:32:45;;;;;;;1.33;1.10;;;18.20;99.90;;;;;;5025981;28;20537;-82
2022/07/02 04:35:14;;;;;;;1.23;0.90;;;18.20;99.90;;;;;;5023818;28;20483;-80
2022/07/02 04:37:42;;;;;;;2.10;1.00;;;18.30;99.90;;;;;;5029058;28;20445;-81
2022/07/02 04:40:10;;;;;;;2.00;1.20;;;18.30;99.90;;;;;;5028187;28;20479;-81
2022/07/02 04:42:39;;;;;;;2.47;1.37;;;18.20;99.90;;;;;;5027007;28;20482;-80
2022/07/02 04:45:08;;;;;;;1.30;1.20;;;18.30;99.90;;;;;;5023110;28;20469;-82
2022/07/02 04:47:36;;;;;;;1.37;1.27;;;18.30;99.90;;;;;;5026589;28;20463;-81
2022/07/02 04:50:07;;;;;;;1.03;1.03;;;18.30;99.90;;;;;;5022935;28;20487;-80
2022/07/02 04:52:35;;;;;;;1.20;1.10;;;18.30;99.90;;;;;;5025253;28;21023;-80
2022/07/02 04:55:04;;;;;;;1.13;1.10;;;18.30;99.90;;;;;;5026264;28;20470;-81
2022/07/02 04:57:32;;;;;;;1.63;1.30;;;18.30;99.90;;;;;;5024286;28;20460;-81
2022/07/02 05:00:01;;;;;;;2.03;1.00;;;18.50;99.90;;;;;;5023529;28;20474;-81
2022/07/02 05:02:29;;;;;;;1.23;1.07;;;18.30;99.90;;;;;;5026965;28;21237;-80
2022/07/02 05:04:57;;;;;;;1.20;1.10;;;18.30;99.90;;;;;;5018051;28;20447;-81
2022/07/02 05:07:27;;;;;;;1.27;1.17;;;18.30;99.90;;;;;;5023299;28;20970;-83
2022/07/02 05:09:58;;;;;;;1.47;1.37;;;18.30;99.90;;;;;;5025388;28;20471;-82
2022/07/02 05:12:26;;;;;;;1.40;1.30;;;18.40;99.90;;;;;;5028128;28;20454;-80
2022/07/02 05:14:55;;;;;;;1.33;1.30;;;18.40;99.90;;;;;;5019900;28;20464;-81
2022/07/02 05:17:23;;;;;;;1.63;1.20;;;18.40;99.90;;;;;;5029037;28;20487;-81
2022/07/02 05:19:51;;;;;;;2.03;1.30;;;18.40;99.90;;;;;;5020232;28;20475;-80
2022/07/02 05:22:19;;;;;;;1.33;1.23;;;18.50;99.90;;;;;;5028913;28;20473;-81
2022/07/02 05:24:49;;;;;;;1.50;1.40;;;18.50;99.90;;;;;;5025944;28;21003;-81
2022/07/02 05:27:17;;;;;;;2.10;1.30;;;18.60;99.90;;;;;;5028525;28;20458;-80
2022/07/02 05:29:46;;;;;;;1.20;1.10;;;18.60;99.90;;;;;;5026996;28;20962;-81
2022/07/02 05:32:16;;;;;;;2.80;1.40;;;18.60;99.90;;;;;;5022779;28;20529;-81
2022/07/02 05:34:44;;;;;;;2.40;1.17;;;18.70;99.90;;;;;;5024611;28;20464;-80
2022/07/02 05:37:12;;;;;;;1.60;1.20;;;18.70;99.90;;;;;;5021499;28;20460;-80
2022/07/02 05:39:41;;;;;;;2.20;1.30;;;18.70;99.90;;;;;;5022609;28;20487;-81
2022/07/02 05:42:10;;;;;;;2.13;1.90;;;18.70;99.90;;;;;;5056934;28;20539;-80
2022/07/02 05:44:39;;;;;;;1.60;1.30;;;18.70;99.90;;;;;;5021504;28;20463;-80
2022/07/02 05:47:08;;;;;;;1.80;1.30;;;18.80;99.90;;;;;;5019296;28;20445;-80
2022/07/02 05:49:36;;;;;;;1.13;1.03;;;18.90;99.90;;;;;;5026061;28;20911;-80
2022/07/02 05:52:05;;;;;;;2.60;2.40;;;18.90;1.00;;;;;;5025532;28;20740;-79
2022/07/02 05:54:33;;;;;;;0.90;0.90;;;18.80;1.00;;;;;;5023732;28;20476;-80
2022/07/02 05:57:01;;;;;;;1.73;0.90;;;18.80;1.00;;;;;;5021486;28;20461;-81
2022/07/02 05:59:31;;;;;;;1.17;1.07;;;18.90;1.00;;;;;;5025315;28;20443;-81
2022/07/02 06:01:59;;;;;;;1.63;1.00;;;18.90;1.00;;;;;;5028156;28;20468;-81
2022/07/02 06:04:27;;;;;;;0.90;0.90;;;18.90;1.00;;;;;;5020514;28;20456;-82
2022/07/02 06:09:41;;;;;;;1.30;1.20;;;19.10;1.00;;;;;;5027030;28;20468;-82
2022/07/02 06:12:10;;;;;;;0.90;0.80;;;19.20;1.00;;;;;;5025459;28;20472;-83
2022/07/02 06:14:40;;;;;;;1.40;0.70;;;19.20;1.00;;;;;;5025103;28;21053;-80
2022/07/02 06:17:10;;;;;;;1.00;0.90;;;19.30;1.00;;;;;;5018183;28;20458;-80
2022/07/02 06:19:39;;;;;;;1.30;0.90;;;19.30;1.00;;;;;;5020159;28;20499;-79
2022/07/02 06:22:07;;;;;;;1.43;0.80;;;19.30;1.00;;;;;;5016615;28;21015;-80
2022/07/02 06:24:35;;;;;;;0.67;0.67;;;19.40;1.00;;;;;;5022210;28;20456;-78
2022/07/02 06:27:05;;;;;;;1.47;0.80;;;19.40;1.00;;;;;;5017187;28;20463;-79
2022/07/02 06:29:33;;;;;;;0.60;0.60;;;19.30;99.90;;;;;;5019636;28;20995;-80
2022/07/02 06:32:02;;;;;;;0.80;0.80;;;19.40;99.90;;;;;;5019556;28;20449;-79
2022/07/02 06:34:30;;;;;;;0.70;0.70;;;19.40;99.90;;;;;;5018386;28;20496;-81
2022/07/02 06:36:59;;;;;;;0.77;0.77;;;19.40;99.90;;;;;;5008407;28;21230;-80
2022/07/02 06:39:27;;;;;;;0.70;0.70;;;19.40;99.90;;;;;;5016829;28;20821;-80
2022/07/02 06:44:42;;;;;;;0.70;0.70;;;19.60;99.90;;;;;;5023218;28;20960;-79
2022/07/02 06:47:12;;;;;;;0.70;0.70;;;19.70;99.90;;;;;;5023288;28;20503;-80
2022/07/02 06:49:41;;;;;;;0.70;0.70;;;19.80;99.90;;;;;;5023306;28;21169;-79
2022/07/02 06:52:10;;;;;;;0.60;0.60;;;19.90;99.90;;;;;;5021035;28;20456;-81
2022/07/02 06:54:39;;;;;;;0.83;0.70;;;20.00;99.90;;;;;;5021275;28;20483;-79
2022/07/02 06:57:08;;;;;;;1.27;0.70;;;20.00;99.90;;;;;;5019302;28;20476;-82
2022/07/02 06:59:36;;;;;;;0.90;0.70;;;20.00;99.90;;;;;;5026759;28;20484;-79
2022/07/02 07:02:05;;;;;;;1.27;0.60;;;20.10;99.90;;;;;;5023112;28;20452;-80
2022/07/02 07:04:43;;;;;;;0.60;0.60;;;20.10;99.90;;;;;;5020005;28;20470;-80
2022/07/02 07:07:12;;;;;;;0.70;0.70;;;20.20;99.90;;;;;;5023659;28;20511;-80
2022/07/02 07:09:40;;;;;;;0.60;0.60;;;20.20;99.90;;;;;;5022174;28;20473;-84
2022/07/02 07:12:09;;;;;;;0.70;0.70;;;20.30;99.90;;;;;;5030327;28;21071;-86
2022/07/02 07:14:37;;;;;;;0.60;0.60;;;20.30;99.90;;;;;;5028774;28;20512;-86
2022/07/02 07:17:06;;;;;;;0.73;0.70;;;20.30;99.90;;;;;;5029308;28;20453;-84
2022/07/02 07:19:35;;;;;;;0.70;0.70;;;20.30;99.90;;;;;;5028020;28;20435;-86
2022/07/02 07:22:05;;;;;;;0.60;0.60;;;20.20;99.90;;;;;;5021249;28;20207;-86
2022/07/02 07:24:33;;;;;;;0.80;0.67;;;20.30;99.90;;;;;;5028963;28;20448;-85
2022/07/02 07:27:01;;;;;;;0.60;0.60;;;20.40;99.90;;;;;;5030400;28;20436;-85
2022/07/02 07:29:30;;;;;;;0.80;0.70;;;20.40;99.90;;;;;;5029837;28;20440;-87
2022/07/02 07:31:58;;;;;;;0.70;0.70;;;20.30;99.90;;;;;;5053176;28;20448;-85
2022/07/02 07:34:27;;;;;;;0.80;0.80;;;20.30;99.90;;;;;;5032999;28;20465;-85
2022/07/02 07:36:55;;;;;;;1.17;0.70;;;20.50;99.90;;;;;;5032337;28;20465;-85
2022/07/02 07:39:25;;;;;;;0.70;0.70;;;20.50;99.90;;;;;;5032821;28;20444;-86
2022/07/02 07:41:54;;;;;;;0.60;0.60;;;20.50;99.90;;;;;;5029445;28;20804;-85
2022/07/02 07:44:22;;;;;;;0.80;0.70;;;20.60;99.90;;;;;;5044903;28;20456;-85
2022/07/02 07:46:50;;;;;;;0.70;0.70;;;20.70;99.90;;;;;;5034443;28;20448;-86
2022/07/02 07:49:19;;;;;;;1.10;0.70;;;20.70;99.90;;;;;;5033094;28;20973;-85
2022/07/02 07:51:47;;;;;;;0.70;0.70;;;20.70;99.90;;;;;;5033335;28;20457;-86
2022/07/02 07:54:15;;;;;;;0.60;0.60;;;20.80;99.90;;;;;;5032569;28;20460;-86
2022/07/02 07:56:45;;;;;;;0.67;0.67;;;20.80;99.90;;;;;;5066645;28;20452;-85
2022/07/02 07:59:13;;;;;;;0.87;0.60;;;20.80;99.90;;;;;;5032834;28;20483;-85
2022/07/02 08:01:42;;;;;;;0.60;0.60;;;20.80;99.90;;;;;;5029994;28;20449;-84
2022/07/02 08:04:10;;;;;;;1.30;1.03;;;20.90;99.90;;;;;;5021623;28;20456;-85
2022/07/02 08:06:38;;;;;;;0.67;0.67;;;21.00;99.90;;;;;;5022871;28;20460;-85
2022/07/02 08:09:07;;;;;;;1.20;1.10;;;21.00;99.90;;;;;;5032006;28;20460;-86
2022/07/02 08:11:35;;;;;;;0.50;0.50;;;21.00;99.90;;;;;;5033599;28;20460;-86
2022/07/02 08:14:05;;;;;;;0.63;0.60;;;21.00;99.90;;;;;;5033745;28;20452;-86
2022/07/02 08:16:33;;;;;;;0.70;0.70;;;21.10;99.90;;;;;;5030525;28;20456;-86
2022/07/02 08:19:02;;;;;;;0.60;0.60;;;21.20;99.90;;;;;;5031650;28;20956;-85
2022/07/02 08:21:30;;;;;;;0.60;0.60;;;21.30;99.90;;;;;;5019500;28;20561;-86
2022/07/02 08:23:59;;;;;;;0.70;0.70;;;21.30;99.90;;;;;;5033591;28;20444;-86
2022/07/02 08:26:27;;;;;;;0.60;0.60;;;21.40;99.90;;;;;;5027195;28;20499;-86
2022/07/02 08:29:04;;;;;;;0.60;0.60;;;21.40;99.90;;;;;;5020473;28;20967;-85
2022/07/02 08:31:32;;;;;;;0.60;0.60;;;21.50;99.90;;;;;;5037110;28;20471;-86
2022/07/02 08:34:01;;;;;;;1.00;0.70;;;21.50;99.90;;;;;;5031569;28;20551;-86
2022/07/02 08:36:29;;;;;;;0.60;0.60;;;21.60;99.90;;;;;;5043352;28;20504;-85
2022/07/02 08:38:57;;;;;;;0.70;0.70;;;21.60;99.90;;;;;;5030952;28;20885;-85
2022/07/02 08:41:26;;;;;;;0.70;0.70;;;21.60;99.90;;;;;;5033679;28;20471;-85
2022/07/02 08:43:55;;;;;;;0.70;0.70;;;21.70;99.90;;;;;;5031775;28;20442;-86
2022/07/02 08:46:26;;;;;;;0.63;0.63;;;21.70;99.90;;;;;;5036691;28;20459;-86
2022/07/02 08:48:56;;;;;;;0.70;0.70;;;21.80;99.90;;;;;;5026663;28;20484;-86
2022/07/02 08:51:24;;;;;;;0.60;0.60;;;21.90;99.90;;;;;;5013774;28;20475;-86
2022/07/02 08:53:53;;;;;;;0.60;0.60;;;21.90;99.90;;;;;;5032791;28;20457;-86
2022/07/02 08:56:24;;;;;;;0.70;0.70;;;22.00;99.90;;;;;;5032757;28;20487;-86
2022/07/02 08:58:54;;;;;;;0.53;0.50;;;22.00;99.90;;;;;;5033397;28;20449;-85
2022/07/02 09:01:23;;;;;;;0.60;0.60;;;21.90;99.90;;;;;;5019718;28;20468;-86
2022/07/02 09:03:53;;;;;;;2.10;0.90;;;21.90;99.90;;;;;;5031106;28;20803;-86
2022/07/02 09:06:28;;;;;;;0.60;0.60;;;22.00;99.90;;;;;;5029083;28;20457;-86
2022/07/02 09:08:56;;;;;;;0.60;0.60;;;22.00;99.90;;;;;;5023159;28;21014;-85
2022/07/02 09:11:25;;;;;;;0.60;0.60;;;22.10;99.90;;;;;;5064616;28;20482;-85
2022/07/02 09:13:55;;;;;;;0.60;0.60;;;22.20;99.90;;;;;;5030484;28;20452;-86
2022/07/02 09:16:24;;;;;;;0.83;0.67;;;22.30;99.90;;;;;;5025798;28;20480;-87
2022/07/02 09:18:54;;;;;;;0.60;0.60;;;22.30;99.90;;;;;;5030646;28;20513;-86
2022/07/02 09:21:23;;;;;;;0.60;0.60;;;22.20;99.90;;;;;;5064454;28;20480;-86
2022/07/02 09:23:52;;;;;;;0.53;0.53;;;22.10;99.90;;;;;;5024485;28;20449;-86
2022/07/02 09:26:21;;;;;;;1.73;0.67;;;22.20;99.90;;;;;;5022678;28;20441;-86
2022/07/02 09:28:56;;;;;;;0.80;0.63;;;22.40;99.90;;;;;;5032638;28;20445;-85
2022/07/02 09:31:24;;;;;;;0.70;0.70;;;22.40;99.90;;;;;;5030971;28;21015;-86
2022/07/02 09:33:54;;;;;;;2.20;0.70;;;22.40;99.90;;;;;;5030829;28;20928;-85
2022/07/02 09:36:23;;;;;;;3.70;0.60;;;22.50;99.90;;;;;;5027788;28;20907;-86
2022/07/02 09:38:53;;;;;;;0.50;0.50;;;22.50;99.90;;;;;;5060826;28;20489;-85
2022/07/02 09:41:23;;;;;;;0.50;0.50;;;22.50;99.90;;;;;;5033688;28;20538;-86
2022/07/02 09:43:58;;;;;;;1.03;0.50;;;22.50;99.90;;;;;;5030149;28;20448;-86
2022/07/02 09:46:27;;;;;;;0.80;0.60;;;22.60;99.90;;;;;;5032000;28;20595;-87
2022/07/02 09:49:07;;;;;;;0.53;0.50;;;22.60;99.90;;;;;;5031578;28;20461;-86
2022/07/02 09:51:48;;;;;;;0.60;0.60;;;22.60;99.90;;;;;;5032194;28;20554;-86
2022/07/02 09:54:20;;;;;;;0.70;0.70;;;22.60;99.90;;;;;;5031885;28;20971;-86
2022/07/02 09:56:53;;;;;;;0.50;0.50;;;22.60;99.90;;;;;;5023607;28;20468;-86
2022/07/02 09:59:21;;;;;;;0.50;0.50;;;22.60;99.90;;;;;;5030480;28;20455;-86
2022/07/02 10:01:50;;;;;;;0.60;0.60;;;22.70;99.90;;;;;;5024964;28;20451;-86
2022/07/02 10:04:29;;;;;;;0.60;0.60;;;22.80;99.90;;;;;;5031580;28;20900;-87
2022/07/02 10:06:59;;;;;;;0.60;0.60;;;22.90;99.90;;;;;;5030525;28;20452;-86
2022/07/02 10:09:28;;;;;;;0.60;0.50;;;23.00;99.90;;;;;;5026894;28;20483;-86
2022/07/02 10:11:58;;;;;;;0.47;0.47;;;23.00;99.90;;;;;;5019597;28;20686;-87
2022/07/02 10:14:29;;;;;;;0.57;0.57;;;23.00;99.90;;;;;;5030192;28;20454;-86
2022/07/02 10:16:59;;;;;;;0.53;0.53;;;22.90;99.90;;;;;;5031416;28;20905;-86
2022/07/02 10:19:29;;;;;;;0.63;0.60;;;23.00;99.90;;;;;;5063265;28;20467;-86
2022/07/02 10:21:59;;;;;;;0.73;0.50;;;23.00;99.90;;;;;;5063809;28;20466;-86
2022/07/02 10:24:28;;;;;;;0.63;0.60;;;23.20;99.90;;;;;;5032070;28;20447;-86
2022/07/02 10:26:59;;;;;;;0.73;0.60;;;23.20;99.90;;;;;;5034732;28;20444;-86
2022/07/02 10:29:28;;;;;;;0.63;0.60;;;23.20;99.90;;;;;;5035708;28;20589;-86
2022/07/02 10:32:07;;;;;;;1.03;0.80;;;23.20;99.90;;;;;;5033771;28;20452;-86
2022/07/02 10:34:48;;;;;;;0.60;0.60;;;23.20;99.90;;;;;;5062845;28;21308;-86
2022/07/02 10:37:17;;;;;;;0.50;0.50;;;23.30;99.90;;;;;;5033624;28;20510;-86
2022/07/02 10:39:46;;;;;;;1.50;0.70;;;23.30;99.90;;;;;;5032961;28;20487;-87
2022/07/02 10:42:14;;;;;;;1.83;0.83;;;23.20;99.90;;;;;;5034843;28;20451;-86
2022/07/02 10:44:45;;;;;;;1.27;0.60;;;23.20;99.90;;;;;;5034113;28;20466;-85
2022/07/02 10:47:20;;;;;;;0.70;0.60;;;23.20;99.90;;;;;;5031341;28;20896;-86
2022/07/02 10:50:00;;;;;;;1.10;0.70;;;23.30;99.90;;;;;;5031713;28;20471;-86
2022/07/02 10:52:47;;;;;;;0.50;0.50;;;23.40;99.90;;;;;;5066030;28;20459;-85
2022/07/02 10:55:26;;;;;;;0.60;0.60;;;23.40;99.90;;;;;;5033185;28;20455;-86
2022/07/02 10:57:59;;;;;;;0.50;0.50;;;23.20;99.90;;;;;;5035745;28;20455;-86
2022/07/02 11:00:32;;;;;;;2.00;0.60;;;23.20;99.90;;;;;;5035343;28;20837;-87
2022/07/02 11:03:16;;;;;;;1.80;0.50;;;23.20;99.90;;;;;;5029225;28;20445;-87
2022/07/02 11:06:00;;;;;;;0.80;0.60;;;23.30;99.90;;;;;;5032274;28;20447;-85
2022/07/02 11:08:49;;;;;;;1.43;0.70;;;23.30;99.90;;;;;;5031224;28;20475;-86
2022/07/02 11:11:28;;;;;;;0.60;0.60;;;23.40;99.90;;;;;;5032289;28;20996;-86
2022/07/02 11:14:00;;;;;;;0.63;0.63;;;23.40;99.90;;;;;;5035293;28;20478;-86
2022/07/02 11:16:33;;;;;;;0.60;0.60;;;23.50;99.90;;;;;;5033702;28;20467;-86
2022/07/02 11:19:02;;;;;;;0.70;0.53;;;23.60;99.90;;;;;;5033534;28;20448;-86
2022/07/02 11:21:33;;;;;;;0.60;0.60;;;23.60;99.90;;;;;;5034644;28;20472;-86
2022/07/02 11:24:01;;;;;;;0.63;0.60;;;23.60;99.90;;;;;;5027006;28;20463;-87
2022/07/02 11:26:30;;;;;;;0.60;0.60;;;23.50;99.90;;;;;;5034839;28;20850;-86
2022/07/02 11:29:04;;;;;;;0.70;0.70;;;23.40;99.90;;;;;;5034825;28;20952;-85
2022/07/02 11:31:36;;;;;;;0.70;0.70;;;23.50;99.90;;;;;;5034511;28;20468;-87
2022/07/02 11:34:05;;;;;;;0.60;0.60;;;23.60;99.90;;;;;;5033712;28;20466;-86
2022/07/02 11:36:37;;;;;;;0.60;0.60;;;23.70;99.90;;;;;;5033755;28;20944;-86
2022/07/02 11:39:11;;;;;;;0.50;0.50;;;23.70;99.90;;;;;;5031503;28;21000;-86
2022/07/02 11:41:41;;;;;;;0.43;0.43;;;23.80;99.90;;;;;;5034597;28;20464;-86
2022/07/02 11:44:15;;;;;;;0.70;0.60;;;23.80;99.90;;;;;;5033914;28;20459;-86
2022/07/02 11:46:48;;;;;;;0.60;0.60;;;23.90;99.90;;;;;;5030963;28;20968;-85
2022/07/02 11:49:18;;;;;;;0.60;0.60;;;23.70;99.90;;;;;;5033848;28;20452;-86
2022/07/02 11:51:49;;;;;;;0.70;0.70;;;23.80;99.90;;;;;;5034587;28;20437;-86
2022/07/02 11:54:18;;;;;;;0.60;0.60;;;23.80;99.90;;;;;;5034936;28;20459;-86
2022/07/02 11:56:49;;;;;;;0.90;0.60;;;23.90;99.90;;;;;;5034347;28;20511;-86
2022/07/02 11:59:20;;;;;;;1.27;0.67;;;24.00;99.90;;;;;;5034049;28;20536;-85
2022/07/02 12:01:49;;;;;;;1.47;0.57;;;23.90;99.90;;;;;;5032279;28;20456;-86
2022/07/02 12:04:20;;;;;;;0.97;0.60;;;23.80;99.90;;;;;;5032727;28;20539;-86
2022/07/02 12:06:52;;;;;;;0.50;0.50;;;23.90;99.90;;;;;;5021662;28;20440;-86
2022/07/02 12:09:23;;;;;;;1.90;0.60;;;24.00;99.90;;;;;;5033090;28;20456;-87
2022/07/02 12:11:55;;;;;;;0.70;0.60;;;24.10;99.90;;;;;;5032802;28;20445;-86
2022/07/02 12:14:29;;;;;;;0.70;0.50;;;24.10;99.90;;;;;;5026449;28;20460;-86
2022/07/02 12:16:59;;;;;;;0.97;0.50;;;24.20;99.90;;;;;;5024761;28;21279;-86
2022/07/02 12:19:31;;;;;;;0.80;0.80;;;24.20;99.90;;;;;;5033275;28;20460;-86
2022/07/02 12:22:02;;;;;;;0.47;0.47;;;24.30;99.90;;;;;;5033539;28;20448;-86
2022/07/02 12:24:32;;;;;;;0.60;0.60;;;24.30;99.90;;;;;;5025251;28;20896;-86
2022/07/02 12:27:02;;;;;;;0.50;0.50;;;24.40;99.90;;;;;;5033194;28;20512;-86
2022/07/02 12:32:20;;;;;;;0.57;0.57;;;24.30;99.90;;;;;;5028734;28;20470;-87
2022/07/02 12:34:49;;;;;;;0.70;0.70;;;24.40;99.90;;;;;;5032699;28;21039;-86
2022/07/02 12:37:25;;;;;;;1.07;0.50;;;24.40;99.90;;;;;;5025419;28;20800;-86
2022/07/02 12:40:01;;;;;;;0.57;0.57;;;24.50;99.90;;;;;;5032003;28;20472;-86
2022/07/02 12:42:33;;;;;;;0.63;0.50;;;24.50;99.90;;;;;;5033291;28;20440;-86
2022/07/02 12:45:04;;;;;;;1.60;0.50;;;24.60;99.90;;;;;;5029444;28;20444;-86
2022/07/02 12:47:34;;;;;;;0.57;0.57;;;24.60;99.90;;;;;;5031466;28;20436;-86
2022/07/02 12:50:05;;;;;;;0.90;0.70;;;24.60;99.90;;;;;;5026713;28;20880;-86
2022/07/02 12:52:46;;;;;;;0.70;0.70;;;24.70;99.90;;;;;;5028467;28;20830;-87
2022/07/02 12:55:22;;;;;;;0.67;0.67;;;24.60;99.90;;;;;;5032899;28;20451;-85
2022/07/02 12:57:50;;;;;;;0.80;0.80;;;24.60;99.90;;;;;;5033033;28;20845;-85
2022/07/02 13:00:19;;;;;;;0.70;0.70;;;24.70;99.90;;;;;;5032993;28;20479;-86
2022/07/02 13:02:47;;;;;;;0.70;0.70;;;24.70;99.90;;;;;;5031879;28;21264;-87
2022/07/02 13:05:16;;;;;;;0.70;0.70;;;24.80;99.90;;;;;;5032507;28;20459;-86
2022/07/02 13:07:45;;;;;;;0.60;0.60;;;24.80;99.90;;;;;;5031769;28;20544;-86
2022/07/02 13:10:14;;;;;;;0.60;0.60;;;24.90;99.90;;;;;;5031481;28;20504;-86
2022/07/02 13:12:42;;;;;;;0.70;0.60;;;24.90;99.90;;;;;;5023558;28;20477;-86
2022/07/02 13:15:11;;;;;;;0.80;0.80;;;25.00;99.90;;;;;;5023055;28;20457;-87